createdAt,value
2022-12-11T00:01:51.305Z,10.20
2022-12-11T00:04:18.949Z,9.43
2022-12-11T00:06:50.354Z,13.43
2022-12-11T00:09:18.150Z,12.97
2022-12-11T00:11:46.151Z,11.13
2022-12-11T00:14:14.561Z,11.27
2022-12-11T00:16:42.443Z,11.00
2022-12-11T00:19:10.075Z,11.57
2022-12-11T00:21:37.818Z,11.57
2022-12-11T00:24:07.771Z,16.63
2022-12-11T00:26:35.395Z,12.57
2022-12-11T00:29:03.484Z,11.73
2022-12-11T00:31:31.639Z,10.70
2022-12-11T00:33:59.260Z,13.50
2022-12-11T00:36:27.761Z,15.53
2022-12-11T00:38:55.632Z,10.80
2022-12-11T00:41:24.996Z,14.13
2022-12-11T00:43:52.842Z,15.40
2022-12-11T00:46:21.697Z,12.73
2022-12-11T00:48:50.072Z,12.73
2022-12-11T00:51:18.688Z,11.50
2022-12-11T00:53:46.394Z,18.33
2022-12-11T00:56:15.928Z,12.20
2022-12-11T00:58:45.180Z,15.30
2022-12-11T01:01:15.051Z,14.57
2022-12-11T01:03:42.738Z,13.63
2022-12-11T01:06:14.772Z,12.00
2022-12-11T01:08:42.567Z,14.00
2022-12-11T01:11:11.011Z,13.30
2022-12-11T01:13:39.392Z,11.77
2022-12-11T01:16:09.897Z,16.10
2022-12-11T01:18:37.845Z,14.77
2022-12-11T01:21:09.727Z,17.43
2022-12-11T01:23:37.913Z,14.20
2022-12-11T01:26:07.263Z,12.07
2022-12-11T01:28:35.377Z,14.50
2022-12-11T01:31:03.080Z,12.90
2022-12-11T01:33:32.050Z,14.90
2022-12-11T01:36:00.415Z,16.03
2022-12-11T01:38:28.040Z,16.67
2022-12-11T01:40:55.873Z,15.77
2022-12-11T01:43:23.531Z,14.83
2022-12-11T01:45:51.244Z,14.50
2022-12-11T01:48:20.481Z,17.70
2022-12-11T01:50:51.807Z,16.83
2022-12-11T01:53:24.049Z,12.03
2022-12-11T01:55:54.476Z,13.93
2022-12-11T01:58:23.675Z,15.57
2022-12-11T02:00:52.671Z,15.70
2022-12-11T02:03:20.498Z,15.27
2022-12-11T02:05:48.163Z,14.63
2022-12-11T02:08:17.648Z,16.27
2022-12-11T02:10:51.721Z,16.13
2022-12-11T02:13:23.411Z,17.00
2022-12-11T02:15:55.035Z,16.90
2022-12-11T02:18:28.077Z,16.77
2022-12-11T02:20:59.760Z,15.93
2022-12-11T02:23:40.242Z,15.90
2022-12-11T02:26:16.304Z,15.30
2022-12-11T02:28:48.675Z,17.00
2022-12-11T02:31:21.633Z,16.23
2022-12-11T02:33:53.869Z,16.00
2022-12-11T02:36:22.670Z,16.77
2022-12-11T02:38:53.585Z,18.77
2022-12-11T02:41:22.903Z,16.23
2022-12-11T02:43:52.203Z,17.70
2022-12-11T02:46:21.639Z,17.23
2022-12-11T02:48:51.135Z,18.17
2022-12-11T02:51:23.580Z,17.07
2022-12-11T02:53:52.529Z,20.80
2022-12-11T02:56:22.275Z,16.50
2022-12-11T02:58:58.966Z,16.57
2022-12-11T03:01:27.233Z,18.00
2022-12-11T03:03:55.522Z,14.43
2022-12-11T03:06:26.066Z,16.93
2022-12-11T03:08:53.690Z,13.03
2022-12-11T03:11:21.367Z,13.73
2022-12-11T03:13:48.977Z,19.37
2022-12-11T03:16:24.396Z,14.40
2022-12-11T03:18:56.605Z,16.30
2022-12-11T03:21:29.669Z,17.07
2022-12-11T03:24:03.008Z,18.13
2022-12-11T03:26:31.211Z,17.10
2022-12-11T03:29:01.606Z,16.70
2022-12-11T03:31:32.638Z,16.60
2022-12-11T03:34:02.885Z,15.10
2022-12-11T03:36:33.330Z,12.53
2022-12-11T03:39:02.866Z,16.83
2022-12-11T03:41:32.319Z,16.97
2022-12-11T03:44:00.128Z,18.37
2022-12-11T03:46:31.857Z,16.60
2022-12-11T03:49:02.558Z,17.90
2022-12-11T03:51:30.585Z,17.90
2022-12-11T03:53:58.922Z,17.57
2022-12-11T03:56:28.599Z,18.77
2022-12-11T03:58:56.271Z,16.73
2022-12-11T04:01:23.997Z,17.80
2022-12-11T04:03:53.337Z,17.93
2022-12-11T04:06:21.000Z,15.87
2022-12-11T04:08:48.670Z,15.07
2022-12-11T04:11:33.890Z,18.50
2022-12-11T04:14:19.090Z,16.03
2022-12-11T04:16:46.763Z,20.27
2022-12-11T04:19:33.578Z,17.20
2022-12-11T04:22:33.539Z,19.63
2022-12-11T04:25:01.832Z,15.90
2022-12-11T04:27:47.400Z,19.00
2022-12-11T04:30:17.123Z,24.00
2022-12-11T04:32:45.050Z,20.03
2022-12-11T04:35:14.810Z,18.03
2022-12-11T04:37:42.703Z,20.30
2022-12-11T04:40:13.147Z,16.70
2022-12-11T04:42:40.966Z,19.13
2022-12-11T04:45:10.478Z,17.70
2022-12-11T04:47:40.367Z,16.53
2022-12-11T04:50:09.748Z,17.70
2022-12-11T04:52:38.765Z,18.20
2022-12-11T04:55:07.557Z,16.73
2022-12-11T04:57:35.355Z,18.87
2022-12-11T05:00:04.639Z,17.10
2022-12-11T05:02:35.727Z,16.60
2022-12-11T05:05:04.159Z,16.57
2022-12-11T05:07:31.794Z,15.73
2022-12-11T05:10:00.965Z,17.37
2022-12-11T05:12:28.568Z,18.20
2022-12-11T05:14:56.569Z,18.00
2022-12-11T05:17:24.241Z,17.47
2022-12-11T05:19:52.803Z,20.20
2022-12-11T05:22:20.518Z,18.40
2022-12-11T05:24:48.172Z,18.20
2022-12-11T05:27:17.071Z,19.47
2022-12-11T05:29:44.643Z,17.67
2022-12-11T05:32:12.305Z,18.60
2022-12-11T05:34:40.078Z,19.97
2022-12-11T05:37:08.416Z,19.40
2022-12-11T05:39:36.063Z,20.47
2022-12-11T05:42:03.676Z,19.90
2022-12-11T05:44:32.616Z,20.30
2022-12-11T05:47:00.364Z,18.80
2022-12-11T05:49:30.961Z,19.70
2022-12-11T05:51:58.943Z,18.67
2022-12-11T05:54:26.822Z,21.30
2022-12-11T05:56:54.549Z,24.73
2022-12-11T05:59:22.174Z,22.93
2022-12-11T06:01:51.273Z,17.60
2022-12-11T06:04:18.969Z,21.30
2022-12-11T06:06:46.606Z,21.37
2022-12-11T06:09:15.913Z,20.60
2022-12-11T06:11:43.926Z,20.40
2022-12-11T06:14:13.862Z,20.30
2022-12-11T06:16:41.571Z,19.53
2022-12-11T06:19:15.053Z,20.87
2022-12-11T06:21:43.924Z,22.37
2022-12-11T06:24:11.996Z,21.60
2022-12-11T06:26:39.762Z,20.50
2022-12-11T06:29:10.943Z,20.10
2022-12-11T06:31:40.675Z,19.40
2022-12-11T06:34:09.479Z,21.27
2022-12-11T06:36:38.472Z,19.60
2022-12-11T06:39:06.129Z,20.77
2022-12-11T06:41:33.804Z,20.10
2022-12-11T06:44:01.465Z,20.90
2022-12-11T06:46:29.254Z,21.23
2022-12-11T06:48:56.989Z,17.00
2022-12-11T06:51:25.051Z,16.53
2022-12-11T06:53:55.154Z,22.73
2022-12-11T06:56:24.270Z,23.20
2022-12-11T06:58:52.586Z,20.43
2022-12-11T07:01:22.331Z,19.90
2022-12-11T07:03:50.467Z,20.70
2022-12-11T07:06:18.309Z,24.63
2022-12-11T07:08:49.043Z,23.17
2022-12-11T07:11:19.295Z,22.43
2022-12-11T07:13:47.812Z,21.47
2022-12-11T07:16:17.312Z,23.17
2022-12-11T07:18:48.423Z,20.63
2022-12-11T07:21:16.195Z,23.93
2022-12-11T07:23:44.070Z,19.90
2022-12-11T07:26:15.192Z,20.90
2022-12-11T07:28:44.318Z,20.60
2022-12-11T07:31:13.819Z,21.40
2022-12-11T07:33:42.323Z,23.20
2022-12-11T07:36:12.196Z,27.03
2022-12-11T07:38:40.167Z,21.13
2022-12-11T07:41:10.420Z,24.53
2022-12-11T07:43:38.373Z,20.87
2022-12-11T07:46:09.740Z,21.73
2022-12-11T07:48:38.322Z,27.20
2022-12-11T07:51:10.328Z,31.63
2022-12-11T07:53:38.140Z,23.43
2022-12-11T07:56:06.535Z,21.93
2022-12-11T07:58:34.308Z,24.87
2022-12-11T08:01:02.001Z,22.93
2022-12-11T08:03:31.023Z,24.33
2022-12-11T08:05:58.621Z,29.70
2022-12-11T08:08:26.316Z,22.80
2022-12-11T08:10:54.394Z,25.00
2022-12-11T08:13:22.034Z,24.03
2022-12-11T08:15:49.937Z,23.53
2022-12-11T08:18:17.608Z,23.47
2022-12-11T08:20:47.163Z,22.67
2022-12-11T08:23:14.899Z,22.17
2022-12-11T08:25:42.519Z,24.67
2022-12-11T08:28:10.128Z,27.53
2022-12-11T08:30:40.491Z,24.70
2022-12-11T08:33:08.429Z,25.17
2022-12-11T08:35:40.537Z,28.57
2022-12-11T08:38:09.711Z,26.23
2022-12-11T08:40:37.355Z,25.03
2022-12-11T08:43:05.143Z,24.67
2022-12-11T08:45:34.022Z,24.50
2022-12-11T08:48:01.634Z,23.60
2022-12-11T08:50:29.479Z,24.10
2022-12-11T08:52:57.214Z,19.77
2022-12-11T08:55:26.137Z,23.87
2022-12-11T08:57:53.796Z,20.53
2022-12-11T09:00:21.584Z,23.37
2022-12-11T09:02:49.812Z,22.70
2022-12-11T09:05:17.573Z,29.23
2022-12-11T09:07:45.280Z,24.03
2022-12-11T09:10:12.870Z,25.03
2022-12-11T09:12:42.674Z,24.07
2022-12-11T09:15:11.128Z,25.50
2022-12-11T09:17:39.129Z,21.40
2022-12-11T09:20:07.918Z,27.17
2022-12-11T09:22:35.583Z,24.33
2022-12-11T09:25:03.454Z,24.77
2022-12-11T09:27:31.107Z,23.07
2022-12-11T09:30:00.084Z,26.10
2022-12-11T09:32:27.963Z,26.60
2022-12-11T09:34:55.669Z,27.83
2022-12-11T09:37:23.385Z,23.90
2022-12-11T09:39:50.994Z,26.63
2022-12-11T09:42:22.395Z,24.30
2022-12-11T09:44:53.006Z,25.40
2022-12-11T09:47:26.229Z,30.50
2022-12-11T09:50:00.192Z,22.90
2022-12-11T09:52:33.727Z,21.10
2022-12-11T09:55:05.007Z,20.60
2022-12-11T09:57:42.937Z,21.47
2022-12-11T10:00:19.107Z,21.00
2022-12-11T10:03:00.944Z,23.90
2022-12-11T10:05:32.891Z,20.00
2022-12-11T10:08:05.643Z,21.73
2022-12-11T10:10:40.309Z,18.47
2022-12-11T10:13:16.254Z,20.77
2022-12-11T10:15:50.617Z,19.47
2022-12-11T10:18:23.177Z,22.67
2022-12-11T10:20:52.825Z,22.93
2022-12-11T10:23:22.681Z,20.40
2022-12-11T10:25:52.890Z,20.73
2022-12-11T10:28:22.106Z,23.57
2022-12-11T10:30:52.232Z,21.00
2022-12-11T10:33:24.078Z,18.10
2022-12-11T10:35:53.485Z,18.83
2022-12-11T10:38:25.035Z,21.23
2022-12-11T10:40:54.482Z,15.60
2022-12-11T10:43:22.310Z,22.50
2022-12-11T10:45:53.979Z,17.60
2022-12-11T10:48:23.535Z,18.80
2022-12-11T10:51:00.008Z,19.07
2022-12-11T10:53:28.085Z,18.60
2022-12-11T10:55:58.030Z,18.30
2022-12-11T10:58:27.654Z,21.30
2022-12-11T11:01:06.479Z,22.30
2022-12-11T11:03:37.034Z,15.87
2022-12-11T11:06:15.771Z,19.40
2022-12-11T11:08:45.491Z,20.50
2022-12-11T11:11:26.079Z,18.03
2022-12-11T11:13:53.958Z,37.10
2022-12-11T11:16:23.165Z,17.67
2022-12-11T11:18:54.862Z,15.77
2022-12-11T11:21:24.188Z,16.07
2022-12-11T11:23:53.557Z,18.00
2022-12-11T11:26:22.578Z,16.53
2022-12-11T11:28:52.233Z,25.43
2022-12-11T11:31:20.630Z,18.30
2022-12-11T11:33:56.932Z,40.47
2022-12-11T11:36:26.335Z,17.67
2022-12-11T11:39:18.220Z,18.43
2022-12-11T11:41:51.768Z,18.00
2022-12-11T11:44:22.507Z,18.90
2022-12-11T11:46:56.597Z,20.77
2022-12-11T11:49:29.269Z,28.00
2022-12-11T11:51:59.188Z,43.70
2022-12-11T11:54:32.184Z,18.87
2022-12-11T11:57:00.365Z,22.33
2022-12-11T11:59:32.610Z,17.70
2022-12-11T12:02:00.552Z,18.13
2022-12-11T12:04:34.012Z,23.17
2022-12-11T12:07:11.853Z,18.70
2022-12-11T12:09:48.143Z,22.80
2022-12-11T12:12:26.484Z,23.07
2022-12-11T12:15:03.194Z,19.80
2022-12-11T12:17:38.434Z,18.80
2022-12-11T12:20:15.056Z,28.33
2022-12-11T12:22:58.933Z,19.90
2022-12-11T12:25:30.131Z,21.13
2022-12-11T12:28:05.175Z,18.03
2022-12-11T12:30:38.820Z,22.93
2022-12-11T12:33:19.333Z,16.57
2022-12-11T12:35:53.790Z,24.63
2022-12-11T12:38:24.868Z,22.50
2022-12-11T12:41:01.214Z,20.80
2022-12-11T12:44:08.661Z,28.50
2022-12-11T12:46:47.540Z,28.37
2022-12-11T12:49:17.623Z,29.37
2022-12-11T12:51:47.030Z,24.23
2022-12-11T12:54:17.373Z,27.93
2022-12-11T12:56:47.007Z,23.93
2022-12-11T12:59:23.007Z,23.83
2022-12-11T13:01:55.100Z,21.23
2022-12-11T13:04:54.321Z,58.87
2022-12-11T13:07:23.231Z,20.90
2022-12-11T13:09:59.211Z,18.30
2022-12-11T13:12:33.987Z,19.10
2022-12-11T13:15:01.961Z,20.10
2022-12-11T13:17:38.294Z,19.00
2022-12-11T13:20:18.842Z,37.73
2022-12-11T13:22:53.774Z,19.60
2022-12-11T13:25:25.344Z,21.43
2022-12-11T13:27:53.172Z,24.20
2022-12-11T13:30:25.769Z,25.23
2022-12-11T13:33:03.084Z,24.70
2022-12-11T13:35:31.619Z,22.30
2022-12-11T13:38:05.543Z,26.30
2022-12-11T13:40:38.960Z,19.90
2022-12-11T13:43:09.785Z,18.37
2022-12-11T13:45:41.027Z,19.30
2022-12-11T13:48:19.383Z,26.50
2022-12-11T13:50:47.666Z,17.20
2022-12-11T13:53:17.818Z,18.70
2022-12-11T13:55:45.650Z,28.30
2022-12-11T13:58:18.367Z,18.87
2022-12-11T14:01:00.303Z,25.03
2022-12-11T14:03:28.035Z,22.70
2022-12-11T14:05:55.702Z,25.57
2022-12-11T14:08:29.873Z,20.43
2022-12-11T14:10:57.535Z,19.70
2022-12-11T14:13:27.233Z,21.00
2022-12-11T14:15:55.513Z,28.00
2022-12-11T14:18:24.919Z,20.37
2022-12-11T14:20:56.817Z,20.67
2022-12-11T14:23:27.682Z,20.17
2022-12-11T14:25:56.557Z,23.50
2022-12-11T14:28:27.598Z,21.20
2022-12-11T14:30:58.113Z,18.27
2022-12-11T14:33:28.462Z,20.47
2022-12-11T14:35:56.822Z,20.77
2022-12-11T14:38:28.730Z,26.27
2022-12-11T14:40:59.493Z,35.47
2022-12-11T14:43:30.363Z,19.70
2022-12-11T14:46:01.486Z,21.23
2022-12-11T14:48:31.347Z,20.43
2022-12-11T14:51:02.158Z,19.60
2022-12-11T14:53:34.819Z,22.73
2022-12-11T14:56:04.877Z,20.40
2022-12-11T14:58:32.819Z,24.93
2022-12-11T15:01:02.708Z,20.23
2022-12-11T15:03:33.488Z,23.37
2022-12-11T15:06:02.090Z,24.10
2022-12-11T15:08:32.781Z,24.10
2022-12-11T15:11:04.407Z,24.07
2022-12-11T15:13:32.246Z,25.50
2022-12-11T15:16:00.235Z,27.03
2022-12-11T15:18:31.245Z,20.90
2022-12-11T15:21:01.015Z,49.17
2022-12-11T15:23:28.935Z,43.93
2022-12-11T15:25:59.544Z,21.67
2022-12-11T15:28:29.613Z,23.40
2022-12-11T15:30:58.733Z,22.30
2022-12-11T15:33:31.028Z,24.87
2022-12-11T15:36:03.892Z,26.87
2022-12-11T15:38:37.387Z,36.50
2022-12-11T15:41:07.349Z,27.43
2022-12-11T15:43:37.112Z,26.00
2022-12-11T15:46:06.465Z,30.63
2022-12-11T15:48:34.770Z,34.67
2022-12-11T15:51:03.684Z,38.23
2022-12-11T15:53:31.593Z,27.57
2022-12-11T15:55:59.939Z,27.70
2022-12-11T15:58:29.055Z,29.67
2022-12-11T16:00:57.794Z,28.40
2022-12-11T16:03:26.206Z,24.00
2022-12-11T16:05:54.221Z,26.13
2022-12-11T16:08:24.173Z,23.97
2022-12-11T16:10:53.652Z,30.20
2022-12-11T16:13:21.295Z,27.00
2022-12-11T16:15:51.760Z,38.97
2022-12-11T16:18:22.042Z,25.13
2022-12-11T16:20:50.658Z,31.13
2022-12-11T16:23:18.928Z,33.73
2022-12-11T16:25:47.215Z,25.73
2022-12-11T16:28:16.672Z,27.70
2022-12-11T16:30:44.663Z,29.70
2022-12-11T16:33:14.190Z,29.43
2022-12-11T16:35:42.751Z,26.17
2022-12-11T16:38:11.152Z,29.80
2022-12-11T16:40:39.249Z,34.90
2022-12-11T16:43:06.950Z,30.03
2022-12-11T16:45:34.656Z,28.33
2022-12-11T16:48:04.024Z,34.17
2022-12-11T16:50:33.209Z,25.40
2022-12-11T16:53:00.974Z,32.97
2022-12-11T16:55:28.581Z,27.53
2022-12-11T16:57:56.158Z,28.30
2022-12-11T17:00:23.912Z,32.30
2022-12-11T17:02:51.678Z,29.10
2022-12-11T17:05:19.589Z,29.27
2022-12-11T17:07:48.575Z,30.17
2022-12-11T17:10:16.221Z,28.43
2022-12-11T17:12:43.856Z,32.03
2022-12-11T17:15:11.942Z,29.97
2022-12-11T17:17:39.957Z,27.20
2022-12-11T17:20:09.048Z,29.33
2022-12-11T17:22:36.967Z,28.80
2022-12-11T17:25:06.394Z,23.57
2022-12-11T17:27:34.335Z,36.30
2022-12-11T17:30:01.962Z,26.10
2022-12-11T17:32:29.600Z,26.77
2022-12-11T17:34:57.296Z,25.60
2022-12-11T17:37:24.900Z,33.17
2022-12-11T17:39:52.568Z,29.70
2022-12-11T17:42:21.521Z,34.43
2022-12-11T17:44:49.222Z,30.77
2022-12-11T17:47:16.936Z,32.43
2022-12-11T17:49:44.699Z,38.20
2022-12-11T17:52:12.306Z,30.77
2022-12-11T17:54:40.195Z,33.53
2022-12-11T17:57:07.905Z,37.10
2022-12-11T17:59:37.685Z,37.47
2022-12-11T18:02:07.194Z,32.80
2022-12-11T18:04:41.447Z,30.97
2022-12-11T18:07:10.602Z,32.20
2022-12-11T18:09:40.121Z,31.83
2022-12-11T18:12:08.428Z,34.67
2022-12-11T18:14:37.839Z,38.53
2022-12-11T18:17:07.064Z,35.90
2022-12-11T18:19:34.733Z,28.90
2022-12-11T18:22:02.476Z,34.10
2022-12-11T18:24:31.871Z,36.30
2022-12-11T18:26:59.839Z,37.57
2022-12-11T18:29:27.462Z,37.57
2022-12-11T18:31:56.461Z,37.40
2022-12-11T18:34:24.238Z,39.60
2022-12-11T18:36:51.911Z,40.73
2022-12-11T18:39:19.511Z,41.27
2022-12-11T18:42:03.592Z,39.77
2022-12-11T18:44:35.243Z,40.03
2022-12-11T18:47:04.368Z,32.40
2022-12-11T18:49:31.975Z,44.00
2022-12-11T18:51:59.835Z,33.40
2022-12-11T18:54:27.401Z,34.20
2022-12-11T18:56:55.187Z,30.47
2022-12-11T18:59:23.064Z,33.63
2022-12-11T19:01:50.886Z,34.17
2022-12-11T19:04:20.072Z,34.97
2022-12-11T19:06:47.894Z,29.27
2022-12-11T19:09:15.700Z,30.50
2022-12-11T19:11:44.055Z,38.77
2022-12-11T19:14:12.267Z,33.03
2022-12-11T19:16:42.141Z,31.57
2022-12-11T19:19:13.615Z,33.47
2022-12-11T19:21:43.540Z,33.13
2022-12-11T19:24:14.872Z,32.27
2022-12-11T19:26:42.827Z,33.87
2022-12-11T19:29:10.905Z,32.83
2022-12-11T19:31:38.631Z,31.23
2022-12-11T19:34:06.271Z,39.03
2022-12-11T19:36:35.004Z,32.57
2022-12-11T19:39:09.818Z,34.00
2022-12-11T19:41:40.545Z,32.83
2022-12-11T19:44:08.681Z,38.00
2022-12-11T19:46:36.915Z,34.40
2022-12-11T19:49:05.330Z,33.43
2022-12-11T19:51:34.768Z,34.10
2022-12-11T19:54:04.065Z,30.10
2022-12-11T19:56:31.954Z,33.07
2022-12-11T19:59:00.746Z,29.80
2022-12-11T20:01:31.000Z,32.57
2022-12-11T20:04:00.496Z,38.10
2022-12-11T20:06:28.662Z,32.40
2022-12-11T20:08:56.301Z,29.07
2022-12-11T20:11:25.444Z,34.60
2022-12-11T20:13:55.386Z,31.67
2022-12-11T20:16:39.681Z,30.80
2022-12-11T20:19:11.444Z,33.20
2022-12-11T20:21:39.119Z,31.50
2022-12-11T20:24:07.381Z,31.57
2022-12-11T20:26:38.101Z,32.10
2022-12-11T20:29:08.368Z,28.63
2022-12-11T20:31:36.971Z,35.50
2022-12-11T20:34:05.314Z,36.30
2022-12-11T20:36:33.042Z,31.80
2022-12-11T20:39:00.685Z,30.90
2022-12-11T20:41:29.290Z,32.70
2022-12-11T20:43:58.313Z,36.33
2022-12-11T20:46:27.593Z,29.30
2022-12-11T20:48:58.438Z,30.23
2022-12-11T20:51:26.922Z,30.97
2022-12-11T20:53:57.500Z,38.67
2022-12-11T20:56:26.794Z,29.37
2022-12-11T20:58:54.455Z,27.50
2022-12-11T21:01:25.802Z,30.30
2022-12-11T21:03:53.638Z,32.47
2022-12-11T21:06:22.221Z,34.50
2022-12-11T21:08:50.055Z,30.10
2022-12-11T21:11:18.862Z,29.90
2022-12-11T21:13:46.589Z,31.53
2022-12-11T21:16:14.334Z,28.73
2022-12-11T21:18:44.278Z,33.07
2022-12-11T21:21:12.138Z,32.40
2022-12-11T21:23:40.225Z,27.80
2022-12-11T21:26:08.033Z,27.83
2022-12-11T21:28:35.914Z,32.60
2022-12-11T21:31:05.695Z,31.20
2022-12-11T21:33:33.609Z,31.13
2022-12-11T21:36:03.171Z,30.03
2022-12-11T21:38:31.020Z,31.60
2022-12-11T21:41:08.181Z,28.53
2022-12-11T21:43:35.942Z,27.87
2022-12-11T21:46:04.275Z,30.57
2022-12-11T21:48:32.287Z,30.10
2022-12-11T21:51:08.296Z,30.97
2022-12-11T21:53:35.986Z,32.50
2022-12-11T21:56:06.571Z,31.37
2022-12-11T21:58:35.279Z,30.00
2022-12-11T22:01:03.426Z,39.53
2022-12-11T22:03:31.217Z,29.90
2022-12-11T22:05:58.820Z,29.23
2022-12-11T22:08:27.907Z,35.43
2022-12-11T22:10:56.565Z,33.67
2022-12-11T22:13:24.306Z,32.30
2022-12-11T22:15:52.268Z,34.07
2022-12-11T22:18:19.998Z,31.23
2022-12-11T22:20:48.072Z,33.73
2022-12-11T22:23:15.772Z,32.63
2022-12-11T22:25:44.747Z,40.00
2022-12-11T22:28:12.479Z,34.77
2022-12-11T22:30:40.300Z,34.93
2022-12-11T22:33:08.764Z,33.37
2022-12-11T22:35:36.716Z,32.27
2022-12-11T22:38:04.934Z,33.27
2022-12-11T22:40:32.553Z,31.57
2022-12-11T22:43:01.555Z,34.07
2022-12-11T22:45:32.947Z,32.30
2022-12-11T22:48:07.158Z,33.40
2022-12-11T22:51:34.640Z,28.03
2022-12-11T22:54:02.305Z,34.90
2022-12-11T22:56:30.142Z,29.40
2022-12-11T22:58:59.250Z,33.70
2022-12-11T23:01:28.130Z,29.47
2022-12-11T23:03:56.075Z,32.63
2022-12-11T23:06:25.034Z,30.37
2022-12-11T23:08:53.043Z,31.53
2022-12-11T23:11:24.632Z,28.77
2022-12-11T23:13:52.576Z,27.00
2022-12-11T23:16:22.309Z,30.00
2022-12-11T23:18:50.164Z,31.90
2022-12-11T23:21:18.382Z,30.57
2022-12-11T23:23:46.094Z,28.87
2022-12-11T23:26:15.088Z,31.23
2022-12-11T23:28:43.338Z,26.33
2022-12-11T23:31:11.380Z,28.10
2022-12-11T23:33:40.816Z,28.10
2022-12-11T23:36:09.567Z,31.57
2022-12-11T23:38:37.264Z,28.70
2022-12-11T23:41:06.151Z,30.90
2022-12-11T23:43:35.161Z,28.70
2022-12-11T23:46:02.907Z,27.70
2022-12-11T23:48:31.125Z,30.03
2022-12-11T23:51:01.356Z,30.53
2022-12-11T23:53:29.471Z,26.40
2022-12-11T23:55:57.250Z,29.13
2022-12-11T23:58:24.928Z,30.10
